createdAt,value
2023-01-19T00:00:17.733Z,10.47
2023-01-19T00:02:47.299Z,9.50
2023-01-19T00:05:14.228Z,9.80
2023-01-19T00:07:40.975Z,9.77
2023-01-19T00:10:07.812Z,9.67
2023-01-19T00:12:34.245Z,9.77
2023-01-19T00:15:00.679Z,10.27
2023-01-19T00:17:27.119Z,8.83
2023-01-19T00:19:53.545Z,11.03
2023-01-19T00:22:19.899Z,10.63
2023-01-19T00:24:46.289Z,9.67
2023-01-19T00:27:12.680Z,9.80
2023-01-19T00:29:39.200Z,9.33
2023-01-19T00:32:06.084Z,9.27
2023-01-19T00:34:39.581Z,9.07
2023-01-19T00:37:06.963Z,8.83
2023-01-19T00:39:33.350Z,9.30
2023-01-19T00:42:18.616Z,10.07
2023-01-19T00:44:45.004Z,10.20
2023-01-19T00:47:11.363Z,9.77
2023-01-19T00:49:37.798Z,9.70
2023-01-19T00:52:04.394Z,10.37
2023-01-19T00:54:30.851Z,8.50
2023-01-19T00:56:57.235Z,9.37
2023-01-19T00:59:23.731Z,9.20
2023-01-19T01:01:50.255Z,8.83
2023-01-19T01:04:17.064Z,9.87
2023-01-19T01:06:43.441Z,9.33
2023-01-19T01:09:12.102Z,10.37
2023-01-19T01:11:42.287Z,9.93
2023-01-19T01:14:09.980Z,9.73
2023-01-19T01:16:36.499Z,9.43
2023-01-19T01:19:02.959Z,8.70
2023-01-19T01:21:29.461Z,9.57
2023-01-19T01:23:55.946Z,10.10
2023-01-19T01:26:22.423Z,9.83
2023-01-19T01:28:48.812Z,9.33
2023-01-19T01:31:15.222Z,10.13
2023-01-19T01:33:41.880Z,9.90
2023-01-19T01:36:09.050Z,9.60
2023-01-19T01:38:35.485Z,9.77
2023-01-19T01:41:01.896Z,9.57
2023-01-19T01:43:41.991Z,9.97
2023-01-19T01:46:08.463Z,9.83
2023-01-19T01:48:35.178Z,9.40
2023-01-19T01:51:22.636Z,10.07
2023-01-19T01:53:51.609Z,9.63
2023-01-19T01:56:20.079Z,9.83
2023-01-19T01:58:46.690Z,9.83
2023-01-19T02:01:31.577Z,9.87
2023-01-19T02:03:58.705Z,9.23
2023-01-19T02:06:25.756Z,9.30
2023-01-19T02:09:16.788Z,9.03
2023-01-19T02:12:01.714Z,8.87
2023-01-19T02:14:28.245Z,10.03
2023-01-19T02:16:54.690Z,9.80
2023-01-19T02:19:24.790Z,9.60
2023-01-19T02:22:03.185Z,9.80
2023-01-19T02:24:30.285Z,9.70
2023-01-19T02:26:57.060Z,8.57
2023-01-19T02:29:25.149Z,8.57
2023-01-19T02:31:52.370Z,10.07
2023-01-19T02:34:19.806Z,8.77
2023-01-19T02:36:51.783Z,8.87
2023-01-19T02:39:22.113Z,9.13
2023-01-19T02:41:53.469Z,9.87
2023-01-19T02:44:20.989Z,9.23
2023-01-19T02:46:47.524Z,8.40
2023-01-19T02:49:13.924Z,8.93
2023-01-19T02:51:43.092Z,8.50
2023-01-19T02:54:16.356Z,8.07
2023-01-19T02:57:09.017Z,10.10
2023-01-19T02:59:46.464Z,8.47
2023-01-19T03:02:35.906Z,9.00
2023-01-19T03:05:34.994Z,9.17
2023-01-19T03:08:20.273Z,9.23
2023-01-19T03:11:05.049Z,9.37
2023-01-19T03:13:50.415Z,8.93
2023-01-19T03:16:16.967Z,9.70
2023-01-19T03:18:45.335Z,10.17
2023-01-19T03:21:13.359Z,10.33
2023-01-19T03:23:41.430Z,9.90
2023-01-19T03:26:09.977Z,9.57
2023-01-19T03:28:38.807Z,9.43
2023-01-19T03:31:08.089Z,9.07
2023-01-19T03:33:37.358Z,9.57
2023-01-19T03:36:24.033Z,9.90
2023-01-19T03:38:51.284Z,9.33
2023-01-19T03:41:19.620Z,9.33
2023-01-19T03:43:47.948Z,9.37
2023-01-19T03:46:17.409Z,9.60
2023-01-19T03:48:44.581Z,10.47
2023-01-19T03:51:11.161Z,10.03
2023-01-19T03:53:37.661Z,10.33
2023-01-19T03:56:06.117Z,9.87
2023-01-19T03:58:32.561Z,10.03
2023-01-19T04:00:58.985Z,9.60
2023-01-19T04:03:26.451Z,10.13
2023-01-19T04:05:52.837Z,10.20
2023-01-19T04:08:19.453Z,9.60
2023-01-19T04:10:45.873Z,10.47
2023-01-19T04:13:12.279Z,9.70
2023-01-19T04:15:38.854Z,11.67
2023-01-19T04:18:05.431Z,10.67
2023-01-19T04:20:31.879Z,10.67
2023-01-19T04:23:02.006Z,10.80
2023-01-19T04:25:28.809Z,10.40
2023-01-19T04:27:55.719Z,10.60
2023-01-19T04:30:22.697Z,10.40
2023-01-19T04:32:49.205Z,10.73
2023-01-19T04:35:17.038Z,11.37
2023-01-19T04:37:45.000Z,10.60
2023-01-19T04:40:11.692Z,10.60
2023-01-19T04:42:38.096Z,11.73
2023-01-19T04:45:04.752Z,11.37
2023-01-19T04:47:31.287Z,12.10
2023-01-19T04:49:57.720Z,11.10
2023-01-19T04:52:24.120Z,15.67
2023-01-19T04:54:50.474Z,11.57
2023-01-19T04:57:16.855Z,12.40
2023-01-19T04:59:43.428Z,12.50
2023-01-19T05:02:10.182Z,11.80
2023-01-19T05:04:36.685Z,12.50
2023-01-19T05:07:03.053Z,11.80
2023-01-19T05:09:29.511Z,12.17
2023-01-19T05:11:55.866Z,11.93
2023-01-19T05:14:22.340Z,12.33
2023-01-19T05:16:48.700Z,12.03
2023-01-19T05:19:15.452Z,12.17
2023-01-19T05:21:41.830Z,11.90
2023-01-19T05:24:08.476Z,11.33
2023-01-19T05:26:34.892Z,10.40
2023-01-19T05:29:01.331Z,12.60
2023-01-19T05:31:27.821Z,11.43
2023-01-19T05:33:54.262Z,11.70
2023-01-19T05:36:20.623Z,11.93
2023-01-19T05:38:47.060Z,12.37
2023-01-19T05:41:14.281Z,11.87
2023-01-19T05:43:40.717Z,12.43
2023-01-19T05:46:07.086Z,12.50
2023-01-19T05:48:33.779Z,13.53
2023-01-19T05:51:00.595Z,13.63
2023-01-19T05:53:27.274Z,14.30
2023-01-19T05:55:53.811Z,12.50
2023-01-19T05:58:20.663Z,12.63
2023-01-19T06:00:47.147Z,13.60
2023-01-19T06:03:13.662Z,13.00
2023-01-19T06:05:40.209Z,13.67
2023-01-19T06:08:06.604Z,13.13
2023-01-19T06:10:33.102Z,13.47
2023-01-19T06:12:59.802Z,13.13
2023-01-19T06:15:26.441Z,12.50
2023-01-19T06:17:52.793Z,13.20
2023-01-19T06:20:19.217Z,12.27
2023-01-19T06:22:45.670Z,13.90
2023-01-19T06:25:12.971Z,13.67
2023-01-19T06:27:43.162Z,13.20
2023-01-19T06:30:09.967Z,12.67
2023-01-19T06:32:36.439Z,13.20
2023-01-19T06:35:02.839Z,13.60
2023-01-19T06:37:30.610Z,12.87
2023-01-19T06:39:57.076Z,11.87
2023-01-19T06:42:23.455Z,12.30
2023-01-19T06:44:49.825Z,11.63
2023-01-19T06:47:16.697Z,12.50
2023-01-19T06:49:43.413Z,12.00
2023-01-19T06:52:11.447Z,12.40
2023-01-19T06:54:37.927Z,12.17
2023-01-19T06:57:04.621Z,11.57
2023-01-19T06:59:31.954Z,12.30
2023-01-19T07:01:59.178Z,12.23
2023-01-19T07:04:27.188Z,11.03
2023-01-19T07:06:53.724Z,10.37
2023-01-19T07:09:20.525Z,12.13
2023-01-19T07:11:47.522Z,11.10
2023-01-19T07:14:14.355Z,12.27
2023-01-19T07:16:40.810Z,10.67
2023-01-19T07:19:07.303Z,11.37
2023-01-19T07:21:33.865Z,11.50
2023-01-19T07:24:00.305Z,11.97
2023-01-19T07:26:28.018Z,11.53
2023-01-19T07:28:54.677Z,12.20
2023-01-19T07:31:21.186Z,11.97
2023-01-19T07:33:47.690Z,12.30
2023-01-19T07:36:14.165Z,11.83
2023-01-19T07:38:40.647Z,13.60
2023-01-19T07:41:08.013Z,12.40
2023-01-19T07:43:34.698Z,12.93
2023-01-19T07:46:02.324Z,13.47
2023-01-19T07:48:29.098Z,14.10
2023-01-19T07:51:01.868Z,14.27
2023-01-19T07:53:28.289Z,13.83
2023-01-19T07:55:56.531Z,14.07
2023-01-19T07:58:23.663Z,14.20
2023-01-19T08:00:50.791Z,13.40
2023-01-19T08:03:17.935Z,14.03
2023-01-19T08:05:45.107Z,14.47
2023-01-19T08:08:12.601Z,14.93
2023-01-19T08:10:39.079Z,14.63
2023-01-19T08:13:05.445Z,14.07
2023-01-19T08:15:31.797Z,13.10
2023-01-19T08:17:58.831Z,15.33
2023-01-19T08:20:26.019Z,14.43
2023-01-19T08:23:00.141Z,14.23
2023-01-19T08:25:31.655Z,14.83
2023-01-19T08:27:58.117Z,14.37
2023-01-19T08:30:26.797Z,13.20
2023-01-19T08:32:54.623Z,14.20
2023-01-19T08:35:22.190Z,13.83
2023-01-19T08:37:48.562Z,13.00
2023-01-19T08:40:15.053Z,13.53
2023-01-19T08:42:41.456Z,12.57
2023-01-19T08:45:09.335Z,12.70
2023-01-19T08:47:35.819Z,13.03
2023-01-19T08:50:02.304Z,12.70
2023-01-19T08:52:29.422Z,13.00
2023-01-19T08:54:55.818Z,12.33
2023-01-19T08:57:23.133Z,13.40
2023-01-19T08:59:49.514Z,12.97
2023-01-19T09:02:15.955Z,13.20
2023-01-19T09:04:42.506Z,12.87
2023-01-19T09:07:08.943Z,12.83
2023-01-19T09:09:37.926Z,13.23
2023-01-19T09:12:04.500Z,13.23
2023-01-19T09:14:30.967Z,13.17
2023-01-19T09:16:57.332Z,13.07
2023-01-19T09:19:23.688Z,14.33
2023-01-19T09:21:50.891Z,14.20
2023-01-19T09:24:17.250Z,14.80
2023-01-19T09:26:43.732Z,14.27
2023-01-19T09:29:10.169Z,14.80
2023-01-19T09:31:37.270Z,13.77
2023-01-19T09:34:03.738Z,15.87
2023-01-19T09:36:30.367Z,15.97
2023-01-19T09:38:56.852Z,14.30
2023-01-19T09:41:25.112Z,14.83
2023-01-19T09:43:54.615Z,15.27
2023-01-19T09:46:29.039Z,15.67
2023-01-19T09:48:59.166Z,15.73
2023-01-19T09:51:27.097Z,16.20
2023-01-19T09:54:10.756Z,16.73
2023-01-19T09:56:37.833Z,14.30
2023-01-19T09:59:15.274Z,15.20
2023-01-19T10:02:00.313Z,14.60
2023-01-19T10:04:29.843Z,14.40
2023-01-19T10:07:15.139Z,15.17
2023-01-19T10:09:41.527Z,14.70
2023-01-19T10:12:14.003Z,15.07
2023-01-19T10:14:43.325Z,14.70
2023-01-19T10:17:26.324Z,13.60
2023-01-19T10:19:55.337Z,14.53
2023-01-19T10:22:23.704Z,13.27
2023-01-19T10:24:55.542Z,13.73
2023-01-19T10:27:33.922Z,14.03
2023-01-19T10:30:01.151Z,13.73
2023-01-19T10:32:30.467Z,14.83
2023-01-19T10:34:59.608Z,13.30
2023-01-19T10:37:34.267Z,13.80
2023-01-19T10:40:10.072Z,12.50
2023-01-19T10:42:37.134Z,13.60
2023-01-19T10:45:04.905Z,13.43
2023-01-19T10:47:34.470Z,12.53
2023-01-19T10:50:06.224Z,13.20
2023-01-19T10:52:36.824Z,12.27
2023-01-19T10:55:04.121Z,13.10
2023-01-19T10:57:32.879Z,12.20
2023-01-19T10:59:59.462Z,12.40
2023-01-19T11:02:30.688Z,12.87
2023-01-19T11:05:01.447Z,11.07
2023-01-19T11:07:29.267Z,10.90
2023-01-19T11:10:14.379Z,11.80
2023-01-19T11:12:41.836Z,11.47
2023-01-19T11:15:15.763Z,10.53
2023-01-19T11:17:44.999Z,11.60
2023-01-19T11:20:20.689Z,12.03
2023-01-19T11:22:48.844Z,12.17
2023-01-19T11:25:27.453Z,11.07
2023-01-19T11:27:53.871Z,10.73
2023-01-19T11:30:21.941Z,18.10
2023-01-19T11:32:49.366Z,54.60
2023-01-19T11:35:31.000Z,12.10
2023-01-19T11:38:08.113Z,11.27
2023-01-19T11:40:35.068Z,12.43
2023-01-19T11:43:01.955Z,12.10
2023-01-19T11:45:28.647Z,11.27
2023-01-19T11:47:57.103Z,12.00
2023-01-19T11:50:31.797Z,11.73
2023-01-19T11:53:04.986Z,11.43
2023-01-19T11:55:36.487Z,12.67
2023-01-19T11:58:03.482Z,12.70
2023-01-19T12:00:43.156Z,12.43
2023-01-19T12:03:15.421Z,11.83
2023-01-19T12:05:45.597Z,12.27
2023-01-19T12:08:18.703Z,10.97
2023-01-19T12:10:46.128Z,10.80
2023-01-19T12:13:22.577Z,11.30
2023-01-19T12:15:51.999Z,11.03
2023-01-19T12:18:20.977Z,11.03
2023-01-19T12:20:49.190Z,12.23
2023-01-19T12:23:34.360Z,11.73
2023-01-19T12:26:16.111Z,11.43
2023-01-19T12:28:45.172Z,12.33
2023-01-19T12:31:15.185Z,11.73
2023-01-19T12:33:41.691Z,11.80
2023-01-19T12:36:17.417Z,12.67
2023-01-19T12:38:46.766Z,11.30
2023-01-19T12:41:28.017Z,12.10
2023-01-19T12:44:12.529Z,11.70
2023-01-19T12:46:41.029Z,11.43
2023-01-19T12:49:27.731Z,10.63
2023-01-19T12:52:10.169Z,11.00
2023-01-19T12:54:36.642Z,10.90
2023-01-19T12:57:06.295Z,10.53
2023-01-19T12:59:34.689Z,9.87
2023-01-19T13:02:19.670Z,10.63
2023-01-19T13:05:04.899Z,11.07
2023-01-19T13:07:51.324Z,10.30
2023-01-19T13:10:36.461Z,11.00
2023-01-19T13:13:29.453Z,11.07
2023-01-19T13:15:56.928Z,10.97
2023-01-19T13:18:24.714Z,10.83
2023-01-19T13:20:54.476Z,10.80
2023-01-19T13:23:39.835Z,12.03
2023-01-19T13:26:06.972Z,10.70
2023-01-19T13:28:37.837Z,10.30
2023-01-19T13:31:05.190Z,10.37
2023-01-19T13:33:38.629Z,10.80
2023-01-19T13:36:14.415Z,10.77
2023-01-19T13:38:41.280Z,10.13
2023-01-19T13:41:07.744Z,10.83
2023-01-19T13:43:37.008Z,12.00
2023-01-19T13:46:04.271Z,16.30
2023-01-19T13:48:31.201Z,10.50
2023-01-19T13:50:58.849Z,10.67
2023-01-19T13:53:25.286Z,10.60
2023-01-19T13:56:07.195Z,10.60
2023-01-19T13:58:33.860Z,9.77
2023-01-19T14:01:00.392Z,9.33
2023-01-19T14:03:26.884Z,9.13
2023-01-19T14:05:54.262Z,9.50
2023-01-19T14:08:21.478Z,8.50
2023-01-19T14:11:02.840Z,8.67
2023-01-19T14:13:29.919Z,8.93
2023-01-19T14:15:57.768Z,9.60
2023-01-19T14:18:26.142Z,9.47
2023-01-19T14:21:03.903Z,9.77
2023-01-19T14:23:52.695Z,9.20
2023-01-19T14:26:37.602Z,8.93
2023-01-19T14:29:09.942Z,7.87
2023-01-19T14:31:46.250Z,8.37
2023-01-19T14:34:31.333Z,7.40
2023-01-19T14:36:58.197Z,8.20
2023-01-19T14:39:25.763Z,8.30
2023-01-19T14:41:53.066Z,7.87
2023-01-19T14:44:30.681Z,7.40
2023-01-19T14:46:59.548Z,7.10
2023-01-19T14:49:30.664Z,7.50
2023-01-19T14:51:57.268Z,8.20
2023-01-19T14:54:29.540Z,8.03
2023-01-19T14:56:55.919Z,6.40
2023-01-19T14:59:22.318Z,6.87
2023-01-19T15:01:48.839Z,7.27
2023-01-19T15:04:15.396Z,6.67
2023-01-19T15:06:45.809Z,6.40
2023-01-19T15:09:13.159Z,5.87
2023-01-19T15:11:40.547Z,7.03
2023-01-19T15:14:09.108Z,6.60
2023-01-19T15:16:35.901Z,7.23
2023-01-19T15:19:02.331Z,6.63
2023-01-19T15:21:28.821Z,7.20
2023-01-19T15:23:55.287Z,6.63
2023-01-19T15:26:23.360Z,6.97
2023-01-19T15:28:49.973Z,6.17
2023-01-19T15:31:18.002Z,6.57
2023-01-19T15:33:44.499Z,6.03
2023-01-19T15:36:18.599Z,6.40
2023-01-19T15:38:45.216Z,6.53
2023-01-19T15:41:15.449Z,6.93
2023-01-19T15:43:41.986Z,7.37
2023-01-19T15:46:09.269Z,6.00
2023-01-19T15:48:35.742Z,6.00
2023-01-19T15:51:02.205Z,6.77
2023-01-19T15:53:30.619Z,7.10
2023-01-19T15:55:57.344Z,7.00
2023-01-19T15:58:24.304Z,6.60
2023-01-19T16:00:55.162Z,7.07
2023-01-19T16:03:21.733Z,6.33
2023-01-19T16:05:48.232Z,5.50
2023-01-19T16:08:15.220Z,6.73
2023-01-19T16:10:41.966Z,6.43
2023-01-19T16:13:09.113Z,6.57
2023-01-19T16:15:36.479Z,5.57
2023-01-19T16:18:03.544Z,5.47
2023-01-19T16:20:30.041Z,6.20
2023-01-19T16:23:00.716Z,4.90
2023-01-19T16:25:32.725Z,5.27
2023-01-19T16:27:59.258Z,4.57
2023-01-19T16:30:25.640Z,4.40
2023-01-19T16:32:52.341Z,4.43
2023-01-19T16:35:18.842Z,5.10
2023-01-19T16:37:49.721Z,4.47
2023-01-19T16:40:16.168Z,4.33
2023-01-19T16:42:42.599Z,4.17
2023-01-19T16:45:09.051Z,4.27
2023-01-19T16:47:35.443Z,4.70
2023-01-19T16:50:01.870Z,4.47
2023-01-19T16:52:28.546Z,5.10
2023-01-19T16:54:54.986Z,4.77
2023-01-19T16:57:21.592Z,4.77
2023-01-19T16:59:48.143Z,4.50
2023-01-19T17:02:14.735Z,4.27
2023-01-19T17:04:42.054Z,4.37
2023-01-19T17:07:08.402Z,4.50
2023-01-19T17:09:34.781Z,4.23
2023-01-19T17:12:01.157Z,5.20
2023-01-19T17:14:27.569Z,4.77
2023-01-19T17:16:54.067Z,4.37
2023-01-19T17:19:20.781Z,4.20
2023-01-19T17:21:50.202Z,4.47
2023-01-19T17:24:17.248Z,3.57
2023-01-19T17:26:46.029Z,4.20
2023-01-19T17:29:12.498Z,5.70
2023-01-19T17:31:38.985Z,8.57
2023-01-19T17:34:08.018Z,4.20
2023-01-19T17:36:34.429Z,4.40
2023-01-19T17:39:04.395Z,4.07
2023-01-19T17:41:31.720Z,5.50
2023-01-19T17:43:59.276Z,4.03
2023-01-19T17:46:26.831Z,4.37
2023-01-19T17:48:57.327Z,3.43
2023-01-19T17:51:24.038Z,2.83
2023-01-19T17:53:50.905Z,3.67
2023-01-19T17:56:18.644Z,3.07
2023-01-19T17:58:45.264Z,2.70
2023-01-19T18:01:16.295Z,2.63
2023-01-19T18:03:43.035Z,2.90
2023-01-19T18:06:09.948Z,1.83
2023-01-19T18:08:40.532Z,2.50
2023-01-19T18:11:07.441Z,2.50
2023-01-19T18:13:34.189Z,2.50
2023-01-19T18:16:05.553Z,2.63
2023-01-19T18:18:32.292Z,2.43
2023-01-19T18:20:59.532Z,1.87
2023-01-19T18:23:25.926Z,2.40
2023-01-19T18:26:02.417Z,1.80
2023-01-19T18:28:28.940Z,2.67
2023-01-19T18:30:55.565Z,2.27
2023-01-19T18:33:22.264Z,2.17
2023-01-19T18:35:48.887Z,2.23
2023-01-19T18:38:15.366Z,2.10
2023-01-19T18:40:42.088Z,2.17
2023-01-19T18:43:08.870Z,2.57
2023-01-19T18:45:37.045Z,2.40
2023-01-19T18:48:03.985Z,1.57
2023-01-19T18:50:30.415Z,1.83
2023-01-19T18:52:56.806Z,2.03
2023-01-19T18:55:24.142Z,2.20
2023-01-19T18:57:51.079Z,1.60
2023-01-19T19:00:18.448Z,1.83
2023-01-19T19:02:44.811Z,1.60
2023-01-19T19:05:11.328Z,1.53
2023-01-19T19:07:37.781Z,1.80
2023-01-19T19:10:04.909Z,1.63
2023-01-19T19:12:31.296Z,1.73
2023-01-19T19:14:57.658Z,1.87
2023-01-19T19:17:24.057Z,1.30
2023-01-19T19:19:50.509Z,1.47
2023-01-19T19:22:16.921Z,1.23
2023-01-19T19:24:43.276Z,1.43
2023-01-19T19:27:14.057Z,1.43
2023-01-19T19:29:41.081Z,1.97
2023-01-19T19:32:07.488Z,1.73
2023-01-19T19:34:34.103Z,2.00
2023-01-19T19:37:01.365Z,1.60
2023-01-19T19:39:28.059Z,1.90
2023-01-19T19:41:54.482Z,2.37
2023-01-19T19:44:20.875Z,2.00
2023-01-19T19:46:47.420Z,1.97
2023-01-19T19:49:14.003Z,2.23
2023-01-19T19:51:40.433Z,1.70
2023-01-19T19:54:15.505Z,1.80
2023-01-19T19:56:42.059Z,2.07
2023-01-19T19:59:08.507Z,1.70
2023-01-19T20:01:35.168Z,2.03
2023-01-19T20:04:07.151Z,2.13
2023-01-19T20:06:38.848Z,1.40
2023-01-19T20:09:07.018Z,1.90
2023-01-19T20:11:33.389Z,1.77
2023-01-19T20:13:59.924Z,1.90
2023-01-19T20:16:26.570Z,1.33
2023-01-19T20:18:54.529Z,1.77
2023-01-19T20:21:31.851Z,1.73
2023-01-19T20:24:02.673Z,2.57
2023-01-19T20:26:30.650Z,2.00
2023-01-19T20:28:59.780Z,1.80
2023-01-19T20:31:27.940Z,1.87
2023-01-19T20:33:55.305Z,2.60
2023-01-19T20:36:24.699Z,1.13
2023-01-19T20:38:51.476Z,1.40
2023-01-19T20:41:18.531Z,1.93
2023-01-19T20:43:44.890Z,1.77
2023-01-19T20:46:12.229Z,1.77
2023-01-19T20:48:39.333Z,1.80
2023-01-19T20:51:07.243Z,1.70
2023-01-19T20:53:34.410Z,1.80
2023-01-19T20:56:08.172Z,1.90
2023-01-19T20:58:34.682Z,1.63
2023-01-19T21:01:08.844Z,1.90
2023-01-19T21:03:36.347Z,1.60
2023-01-19T21:06:02.800Z,1.47
2023-01-19T21:08:29.411Z,2.30
2023-01-19T21:10:56.414Z,1.70
2023-01-19T21:13:22.776Z,1.80
2023-01-19T21:15:49.219Z,1.83
2023-01-19T21:18:15.609Z,1.80
2023-01-19T21:20:41.985Z,1.40
2023-01-19T21:23:08.437Z,1.67
2023-01-19T21:25:34.914Z,1.87
2023-01-19T21:28:01.331Z,2.10
2023-01-19T21:30:27.753Z,1.80
2023-01-19T21:32:55.190Z,1.93
2023-01-19T21:35:21.602Z,2.03
2023-01-19T21:37:47.965Z,2.20
2023-01-19T21:40:14.404Z,2.30
2023-01-19T21:42:41.757Z,2.40
2023-01-19T21:45:08.375Z,2.23
2023-01-19T21:47:35.362Z,2.27
2023-01-19T21:50:01.835Z,2.80
2023-01-19T21:52:28.275Z,2.53
2023-01-19T21:54:54.704Z,2.20
2023-01-19T21:57:21.852Z,2.10
2023-01-19T21:59:49.725Z,2.00
2023-01-19T22:02:23.913Z,2.53
2023-01-19T22:04:59.893Z,2.30
2023-01-19T22:07:26.339Z,2.20
2023-01-19T22:09:52.731Z,2.90
2023-01-19T22:12:19.100Z,2.20
2023-01-19T22:14:45.505Z,2.17
2023-01-19T22:17:11.975Z,2.13
2023-01-19T22:19:38.395Z,2.27
2023-01-19T22:22:04.753Z,2.40
2023-01-19T22:24:31.230Z,2.27
2023-01-19T22:26:57.747Z,2.10
2023-01-19T22:29:24.127Z,2.70
2023-01-19T22:31:52.268Z,3.13
2023-01-19T22:34:18.743Z,1.83
2023-01-19T22:36:45.272Z,2.10
2023-01-19T22:39:12.555Z,2.40
2023-01-19T22:41:45.723Z,2.40
2023-01-19T22:44:13.553Z,3.13
2023-01-19T22:46:39.960Z,2.20
2023-01-19T22:49:07.632Z,2.00
2023-01-19T22:51:34.889Z,2.10
2023-01-19T22:54:01.495Z,2.60
2023-01-19T22:56:28.754Z,2.00
2023-01-19T22:58:55.828Z,2.37
2023-01-19T23:01:23.533Z,2.50
2023-01-19T23:03:50.346Z,2.63
2023-01-19T23:06:18.491Z,2.40
2023-01-19T23:08:44.936Z,2.57
2023-01-19T23:11:12.855Z,3.07
2023-01-19T23:13:39.295Z,2.50
2023-01-19T23:16:06.404Z,2.70
2023-01-19T23:18:32.989Z,2.50
2023-01-19T23:21:03.235Z,2.70
2023-01-19T23:23:29.666Z,2.33
2023-01-19T23:25:59.472Z,2.93
2023-01-19T23:28:25.854Z,2.47
2023-01-19T23:30:52.277Z,2.63
2023-01-19T23:33:18.736Z,2.50
2023-01-19T23:35:45.181Z,2.20
2023-01-19T23:38:11.609Z,2.57
2023-01-19T23:40:38.624Z,2.43
2023-01-19T23:43:05.307Z,2.97
2023-01-19T23:45:31.738Z,2.63
2023-01-19T23:47:58.145Z,2.30
2023-01-19T23:50:24.635Z,2.47
2023-01-19T23:52:51.002Z,3.10
2023-01-19T23:55:17.473Z,2.20
2023-01-19T23:57:43.960Z,2.43
